Time,TemperatureF,DewpointF,PressureIn,WindDirection,WindDirectionDegrees,WindSpeedMPH,WindSpeedGustMPH,Humidity,HourlyPrecipIn,Conditions,Clouds,dailyrainin,SoftwareType,DateUTC
2013-02-01 00:05:00,19.2,9.4,29.46,SW,236,4.0,5.0,65,0.00,,,0.00,Wunderground v.1.15,2013-02-01 05:05:00,
2013-02-01 00:10:00,19.2,9.4,29.45,WSW,256,5.0,7.0,65,0.00,,,0.00,Wunderground v.1.15,2013-02-01 05:10:00,
2013-02-01 00:20:00,19.1,8.6,29.45,WNW,284,3.0,3.0,63,0.00,,,0.00,Wunderground v.1.15,2013-02-01 05:20:00,
2013-02-01 00:25:00,19.2,8.3,29.45,SSW,201,4.0,4.0,62,0.00,,,0.00,Wunderground v.1.15,2013-02-01 05:25:00,
2013-02-01 00:30:00,19.2,8.3,29.46,NW,304,3.0,3.0,62,0.00,,,0.00,Wunderground v.1.15,2013-02-01 05:30:00,
2013-02-01 00:35:00,19.2,8.3,29.46,West,260,3.0,3.0,62,0.00,,,0.00,Wunderground v.1.15,2013-02-01 05:35:00,
2013-02-01 00:40:00,19.3,7.7,29.46,SSE,165,4.0,9.0,60,0.00,,,0.00,Wunderground v.1.15,2013-02-01 05:40:00,
2013-02-01 00:45:00,19.5,7.9,29.46,NNE,20,6.0,9.0,60,0.00,,,0.00,Wunderground v.1.15,2013-02-01 05:45:00,
2013-02-01 00:50:00,19.5,7.1,29.46,SW,219,7.0,7.0,58,0.00,,,0.00,Wunderground v.1.15,2013-02-01 05:50:00,
2013-02-01 00:55:00,19.5,7.5,29.46,WSW,239,6.0,7.0,59,0.00,,,0.00,Wunderground v.1.15,2013-02-01 05:55:00,
2013-02-01 01:05:00,19.4,7.8,29.47,West,274,5.0,5.0,60,0.00,,,0.00,Wunderground v.1.15,2013-02-01 06:05:00,
2013-02-01 01:11:00,19.4,8.1,29.48,SW,234,5.0,9.0,61,0.00,,,0.00,Wunderground v.1.15,2013-02-01 06:11:00,
2013-02-01 01:15:00,19.3,8.0,29.47,West,259,7.0,7.0,61,0.00,,,0.00,Wunderground v.1.15,2013-02-01 06:15:00,
2013-02-01 01:20:00,19.3,8.0,29.48,SW,216,7.0,7.0,61,0.00,,,0.00,Wunderground v.1.15,2013-02-01 06:20:00,
2013-02-01 01:25:00,19.2,8.3,29.48,SSE,153,4.0,4.0,62,0.00,,,0.00,Wunderground v.1.15,2013-02-01 06:25:00,
2013-02-01 01:30:00,19.3,8.0,29.48,South,184,4.0,4.0,61,0.00,,,0.00,Wunderground v.1.15,2013-02-01 06:30:00,
2013-02-01 01:35:00,19.2,8.7,29.49,NW,323,4.0,9.0,63,0.00,,,0.00,Wunderground v.1.15,2013-02-01 06:35:00,
2013-02-01 01:40:00,19.0,8.5,29.49,SSE,167,6.0,12.0,63,0.00,,,0.00,Wunderground v.1.15,2013-02-01 06:40:00,
2013-02-01 01:45:00,19.0,8.8,29.49,SSW,197,7.0,7.0,64,0.00,,,0.00,Wunderground v.1.15,2013-02-01 06:45:00,
2013-02-01 01:50:00,18.9,9.1,29.49,SW,217,5.0,7.0,65,0.00,,,0.00,Wunderground v.1.15,2013-02-01 06:50:00,
2013-02-01 01:55:00,18.9,9.1,29.49,WNW,301,4.0,4.0,65,0.00,,,0.00,Wunderground v.1.15,2013-02-01 06:55:00,
2013-02-01 02:00:00,18.9,9.1,29.49,NW,325,3.0,3.0,65,0.00,,,0.00,Wunderground v.1.15,2013-02-01 07:00:00,
2013-02-01 02:10:00,18.6,9.8,29.50,WNW,283,3.0,4.0,68,0.00,,,0.00,Wunderground v.1.15,2013-02-01 07:10:00,
2013-02-01 02:15:00,18.4,9.9,29.50,WSW,256,3.0,4.0,69,0.00,,,0.00,Wunderground v.1.15,2013-02-01 07:15:00,
2013-02-01 02:20:00,18.2,10.4,29.51,NE,55,3.0,3.0,71,0.00,,,0.00,Wunderground v.1.15,2013-02-01 07:20:00,
2013-02-01 02:25:00,18.1,10.9,29.50,West,271,2.0,3.0,73,0.00,,,0.00,Wunderground v.1.15,2013-02-01 07:25:00,
2013-02-01 02:30:00,17.8,10.9,29.51,WNW,294,2.0,4.0,74,0.00,,,0.00,Wunderground v.1.15,2013-02-01 07:30:00,
2013-02-01 02:35:00,17.6,10.7,29.51,West,277,2.0,4.0,74,0.00,,,0.00,Wunderground v.1.15,2013-02-01 07:35:00,
2013-02-01 02:40:00,17.4,10.8,29.51,WNW,303,2.0,4.0,75,0.00,,,0.00,Wunderground v.1.15,2013-02-01 07:40:00,
2013-02-01 02:45:00,17.2,10.6,29.51,West,265,2.0,4.0,75,0.00,,,0.00,Wunderground v.1.15,2013-02-01 07:45:00,
2013-02-01 02:50:00,17.0,10.7,29.51,WSW,239,3.0,3.0,76,0.00,,,0.00,Wunderground v.1.15,2013-02-01 07:50:00,
2013-02-01 02:55:00,16.8,10.8,29.51,NW,306,4.0,4.0,77,0.00,,,0.00,Wunderground v.1.15,2013-02-01 07:55:00,
2013-02-01 03:05:00,16.6,10.9,29.52,West,265,2.0,2.0,78,0.00,,,0.00,Wunderground v.1.15,2013-02-01 08:05:00,
2013-02-01 03:10:00,16.3,10.6,29.52,SW,229,3.0,3.0,78,0.00,,,0.00,Wunderground v.1.15,2013-02-01 08:10:00,
2013-02-01 03:15:00,16.1,10.7,29.52,NNW,334,3.0,4.0,79,0.00,,,0.00,Wunderground v.1.15,2013-02-01 08:15:00,
2013-02-01 03:20:00,15.8,10.4,29.53,NW,305,4.0,5.0,79,0.00,,,0.00,Wunderground v.1.15,2013-02-01 08:20:00,
2013-02-01 03:25:00,15.5,10.4,29.53,WSW,254,4.0,8.0,80,0.00,,,0.00,Wunderground v.1.15,2013-02-01 08:25:00,
2013-02-01 03:35:00,15.1,10.3,29.54,WSW,244,2.0,2.0,81,0.00,,,0.00,Wunderground v.1.15,2013-02-01 08:35:00,
2013-02-01 03:40:00,15.0,10.2,29.54,West,267,2.0,2.0,81,0.00,,,0.00,Wunderground v.1.15,2013-02-01 08:40:00,
2013-02-01 03:45:00,14.7,9.9,29.54,WSW,247,3.0,3.0,81,0.00,,,0.00,Wunderground v.1.15,2013-02-01 08:45:00,
2013-02-01 03:50:00,14.3,9.3,29.54,WNW,292,4.0,4.0,80,0.00,,,0.00,Wunderground v.1.15,2013-02-01 08:50:00,
2013-02-01 04:00:00,13.8,8.8,29.55,West,269,3.0,3.0,80,0.00,,,0.00,Wunderground v.1.15,2013-02-01 09:00:00,
2013-02-01 04:05:00,13.5,8.2,29.55,NW,311,4.0,4.0,79,0.00,,,0.00,Wunderground v.1.15,2013-02-01 09:05:00,
2013-02-01 04:10:00,13.5,8.5,29.56,WNW,301,3.0,3.0,80,0.00,,,0.00,Wunderground v.1.15,2013-02-01 09:10:00,
2013-02-01 04:16:00,13.3,8.3,29.56,WSW,247,3.0,3.0,80,0.00,,,0.00,Wunderground v.1.15,2013-02-01 09:16:00,
2013-02-01 04:20:00,13.1,8.1,29.57,NNW,337,3.0,3.0,80,0.00,,,0.00,Wunderground v.1.15,2013-02-01 09:20:00,
2013-02-01 04:25:00,12.8,7.8,29.57,NW,316,3.0,3.0,80,0.00,,,0.00,Wunderground v.1.15,2013-02-01 09:25:00,
2013-02-01 04:35:00,12.3,7.0,29.57,WSW,243,3.0,3.0,79,0.00,,,0.00,Wunderground v.1.15,2013-02-01 09:35:00,
2013-02-01 04:40:00,12.2,6.9,29.58,SW,224,3.0,4.0,79,0.00,,,0.00,Wunderground v.1.15,2013-02-01 09:40:00,
2013-02-01 04:45:00,12.1,6.6,29.58,ENE,77,3.0,4.0,78,0.00,,,0.00,Wunderground v.1.15,2013-02-01 09:45:00,
2013-02-01 04:50:00,11.9,6.4,29.58,WNW,286,5.0,5.0,78,0.00,,,0.00,Wunderground v.1.15,2013-02-01 09:50:00,
2013-02-01 04:55:00,11.7,6.4,29.58,West,267,5.0,9.0,79,0.00,,,0.00,Wunderground v.1.15,2013-02-01 09:55:00,
2013-02-01 05:00:00,11.6,6.3,29.58,ESE,122,5.0,5.0,79,0.00,,,0.00,Wunderground v.1.15,2013-02-01 10:00:00,
2013-02-01 05:05:00,11.6,6.3,29.59,NW,312,4.0,7.0,79,0.00,,,0.00,Wunderground v.1.15,2013-02-01 10:05:00,
2013-02-01 05:10:00,11.4,6.2,29.59,WNW,298,5.0,5.0,79,0.00,,,0.00,Wunderground v.1.15,2013-02-01 10:10:00,
2013-02-01 05:16:00,11.4,6.4,29.59,West,274,5.0,5.0,80,0.00,,,0.00,Wunderground v.1.15,2013-02-01 10:16:00,
2013-02-01 05:20:00,11.4,6.4,29.59,SW,234,4.0,4.0,80,0.00,,,0.00,Wunderground v.1.15,2013-02-01 10:20:00,
2013-02-01 05:25:00,11.3,6.3,29.59,West,261,4.0,4.0,80,0.00,,,0.00,Wunderground v.1.15,2013-02-01 10:25:00,
2013-02-01 05:30:00,11.3,6.6,29.60,West,260,3.0,3.0,81,0.00,,,0.00,Wunderground v.1.15,2013-02-01 10:30:00,
2013-02-01 05:35:00,11.4,6.4,29.60,WSW,241,4.0,4.0,80,0.00,,,0.00,Wunderground v.1.15,2013-02-01 10:35:00,
2013-02-01 05:40:00,11.4,6.4,29.60,WNW,302,4.0,4.0,80,0.00,,,0.00,Wunderground v.1.15,2013-02-01 10:40:00,
2013-02-01 05:50:00,11.4,6.4,29.61,WNW,296,4.0,5.0,80,0.00,,,0.00,Wunderground v.1.15,2013-02-01 10:50:00,
2013-02-01 05:55:00,11.4,6.4,29.61,SSW,200,4.0,5.0,80,0.00,,,0.00,Wunderground v.1.15,2013-02-01 10:55:00,
2013-02-01 06:05:00,11.2,6.2,29.61,WNW,296,3.0,4.0,80,0.00,,,0.00,Wunderground v.1.15,2013-02-01 11:05:00,
2013-02-01 06:10:00,11.2,6.2,29.62,WNW,289,2.0,3.0,80,0.00,,,0.00,Wunderground v.1.15,2013-02-01 11:10:00,
2013-02-01 06:15:00,11.1,5.6,29.63,NW,326,3.0,4.0,78,0.00,,,0.00,Wunderground v.1.15,2013-02-01 11:15:00,
2013-02-01 06:20:00,11.0,5.5,29.63,WNW,298,4.0,4.0,78,0.00,,,0.00,Wunderground v.1.15,2013-02-01 11:20:00,
2013-02-01 06:25:00,10.9,5.4,29.64,WNW,301,3.0,4.0,78,0.00,,,0.00,Wunderground v.1.15,2013-02-01 11:25:00,
2013-02-01 06:30:00,10.8,5.6,29.64,NW,307,2.0,2.0,79,0.00,,,0.00,Wunderground v.1.15,2013-02-01 11:30:00,
2013-02-01 06:40:00,10.6,5.4,29.64,NW,308,4.0,8.0,79,0.00,,,0.00,Wunderground v.1.15,2013-02-01 11:40:00,
2013-02-01 06:45:00,10.6,5.1,29.65,WSW,255,6.0,8.0,78,0.00,,,0.00,Wunderground v.1.15,2013-02-01 11:45:00,
2013-02-01 06:50:00,10.6,5.4,29.65,WNW,296,5.0,6.0,79,0.00,,,0.00,Wunderground v.1.15,2013-02-01 11:50:00,
2013-02-01 06:55:00,10.5,5.3,29.65,North,9,4.0,6.0,79,0.00,,,0.00,Wunderground v.1.15,2013-02-01 11:55:00,
2013-02-01 07:00:00,10.5,5.0,29.65,WSW,240,4.0,7.0,78,0.00,,,0.00,Wunderground v.1.15,2013-02-01 12:00:00,
2013-02-01 07:10:00,10.4,4.6,29.67,South,179,5.0,5.0,77,0.00,,,0.00,Wunderground v.1.15,2013-02-01 12:10:00,
2013-02-01 07:20:00,10.3,4.8,29.67,NW,313,3.0,3.0,78,0.00,,,0.00,Wunderground v.1.15,2013-02-01 12:20:00,
2013-02-01 07:25:00,10.3,4.8,29.67,NNW,328,3.0,4.0,78,0.00,,,0.00,Wunderground v.1.15,2013-02-01 12:25:00,
2013-02-01 07:30:00,10.2,4.7,29.68,WNW,284,3.0,3.0,78,0.00,,,0.00,Wunderground v.1.15,2013-02-01 12:30:00,
2013-02-01 07:35:00,10.2,4.7,29.68,WSW,256,3.0,4.0,78,0.00,,,0.00,Wunderground v.1.15,2013-02-01 12:35:00,
2013-02-01 07:40:00,10.3,4.8,29.68,SW,236,3.0,4.0,78,0.00,,,0.00,Wunderground v.1.15,2013-02-01 12:40:00,
2013-02-01 07:45:00,10.4,4.6,29.69,WNW,297,3.0,4.0,77,0.00,,,0.00,Wunderground v.1.15,2013-02-01 12:45:00,
2013-02-01 07:50:00,10.5,4.4,29.69,SW,226,2.0,4.0,76,0.00,,,0.00,Wunderground v.1.15,2013-02-01 12:50:00,
2013-02-01 07:55:00,10.7,4.3,29.70,West,264,3.0,4.0,75,0.00,,,0.00,Wunderground v.1.15,2013-02-01 12:55:00,
2013-02-01 08:00:00,10.8,4.4,29.70,WNW,298,4.0,7.0,75,0.00,,,0.00,Wunderground v.1.15,2013-02-01 13:00:00,
2013-02-01 08:05:00,10.8,4.4,29.71,WSW,245,3.0,7.0,75,0.00,,,0.00,Wunderground v.1.15,2013-02-01 13:05:00,
2013-02-01 08:50:00,11.2,4.5,29.73,SSW,213,6.0,10.0,74,0.00,,,0.00,Wunderground v.1.15,2013-02-01 13:50:00,
2013-02-01 08:55:00,11.3,4.6,29.74,WSW,258,6.0,10.0,74,0.00,,,0.00,Wunderground v.1.15,2013-02-01 13:55:00,
2013-02-01 09:00:00,11.5,4.8,29.74,WSW,256,5.0,7.0,74,0.00,,,0.00,Wunderground v.1.15,2013-02-01 14:00:00,
2013-02-01 09:06:00,11.4,4.4,29.74,WSW,245,5.0,7.0,73,0.00,,,0.00,Wunderground v.1.15,2013-02-01 14:06:00,
2013-02-01 09:15:00,11.6,4.9,29.75,WSW,256,5.0,5.0,74,0.00,,,0.00,Wunderground v.1.15,2013-02-01 14:15:00,
2013-02-01 09:20:00,11.9,4.9,29.75,South,186,4.0,4.0,73,0.00,,,0.00,Wunderground v.1.15,2013-02-01 14:20:00,
2013-02-01 09:30:00,12.1,4.5,29.76,WSW,248,4.0,5.0,71,0.00,,,0.00,Wunderground v.1.15,2013-02-01 14:30:00,
2013-02-01 09:35:00,11.8,4.2,29.76,WNW,286,5.0,6.0,71,0.00,,,0.00,Wunderground v.1.15,2013-02-01 14:35:00,
2013-02-01 09:40:00,11.4,3.8,29.76,WSW,252,7.0,7.0,71,0.00,,,0.00,Wunderground v.1.15,2013-02-01 14:40:00,
2013-02-01 09:45:00,11.3,4.0,29.76,SSW,211,7.0,11.0,72,0.00,,,0.00,Wunderground v.1.15,2013-02-01 14:45:00,
2013-02-01 09:50:00,11.2,3.6,29.77,West,259,6.0,7.0,71,0.00,,,0.00,Wunderground v.1.15,2013-02-01 14:50:00,
2013-02-01 09:55:00,11.4,4.1,29.77,NW,322,6.0,7.0,72,0.00,,,0.00,Wunderground v.1.15,2013-02-01 14:55:00,
2013-02-01 10:00:00,11.7,4.4,29.78,SW,235,5.0,5.0,72,0.00,,,0.00,Wunderground v.1.15,2013-02-01 15:00:00,
2013-02-01 10:05:00,11.9,4.3,29.78,WSW,247,5.0,8.0,71,0.00,,,0.00,Wunderground v.1.15,2013-02-01 15:05:00,
2013-02-01 10:10:00,11.8,3.9,29.78,SSW,194,5.0,11.0,70,0.00,,,0.00,Wunderground v.1.15,2013-02-01 15:10:00,
2013-02-01 10:16:00,11.9,4.3,29.79,WSW,246,6.0,11.0,71,0.00,,,0.00,Wunderground v.1.15,2013-02-01 15:16:00,
2013-02-01 10:20:00,12.0,4.1,29.79,WSW,250,6.0,7.0,70,0.00,,,0.00,Wunderground v.1.15,2013-02-01 15:20:00,
2013-02-01 10:25:00,12.0,3.8,29.79,WSW,254,6.0,7.0,69,0.00,,,0.00,Wunderground v.1.15,2013-02-01 15:25:00,
2013-02-01 10:35:00,12.3,4.1,29.79,WSW,257,6.0,8.0,69,0.00,,,0.00,Wunderground v.1.15,2013-02-01 15:35:00,
2013-02-01 10:40:00,12.3,3.7,29.79,SW,229,7.0,7.0,68,0.00,,,0.00,Wunderground v.1.15,2013-02-01 15:40:00,
2013-02-01 10:45:00,12.6,3.7,29.79,West,278,6.0,12.0,67,0.00,,,0.00,Wunderground v.1.15,2013-02-01 15:45:00,
2013-02-01 10:50:00,12.5,3.6,29.80,SSW,200,6.0,8.0,67,0.00,,,0.00,Wunderground v.1.15,2013-02-01 15:50:00,
2013-02-01 11:00:00,12.6,3.4,29.80,South,188,6.0,6.0,66,0.00,,,0.00,Wunderground v.1.15,2013-02-01 16:00:00,
2013-02-01 11:05:00,12.6,3.7,29.80,SSW,198,6.0,7.0,67,0.00,,,0.00,Wunderground v.1.15,2013-02-01 16:05:00,
2013-02-01 11:16:00,12.6,3.4,29.81,WSW,241,6.0,12.0,66,0.00,,,0.00,Wunderground v.1.15,2013-02-01 16:16:00,
2013-02-01 11:20:00,12.6,3.1,29.81,SSW,194,7.0,10.0,65,0.00,,,0.00,Wunderground v.1.15,2013-02-01 16:20:00,
2013-02-01 11:25:00,12.6,3.4,29.81,WSW,246,8.0,10.0,66,0.00,,,0.00,Wunderground v.1.15,2013-02-01 16:25:00,
2013-02-01 11:31:00,12.7,3.1,29.81,WSW,251,7.0,7.0,65,0.00,,,0.00,Wunderground v.1.15,2013-02-01 16:31:00,
2013-02-01 11:35:00,12.6,3.1,29.82,NW,312,7.0,11.0,65,0.00,,,0.00,Wunderground v.1.15,2013-02-01 16:35:00,
2013-02-01 11:41:00,12.6,3.1,29.82,WSW,249,7.0,7.0,65,0.00,,,0.00,Wunderground v.1.15,2013-02-01 16:41:00,
2013-02-01 11:50:00,12.7,3.1,29.82,WSW,246,7.0,8.0,65,0.00,,,0.00,Wunderground v.1.15,2013-02-01 16:50:00,
2013-02-01 11:55:00,12.8,3.2,29.82,SSW,205,8.0,8.0,65,0.00,,,0.00,Wunderground v.1.15,2013-02-01 16:55:00,
2013-02-01 12:00:00,12.7,3.1,29.82,WSW,240,8.0,10.0,65,0.00,,,0.00,Wunderground v.1.15,2013-02-01 17:00:00,
2013-02-01 12:10:00,13.3,3.4,29.82,SW,217,7.0,7.0,64,0.00,,,0.00,Wunderground v.1.15,2013-02-01 17:10:00,
2013-02-01 12:16:00,13.5,3.6,29.82,West,266,6.0,7.0,64,0.00,,,0.00,Wunderground v.1.15,2013-02-01 17:16:00,
2013-02-01 12:20:00,13.5,3.2,29.82,SSW,208,6.0,6.0,63,0.00,,,0.00,Wunderground v.1.15,2013-02-01 17:20:00,
2013-02-01 12:25:00,13.3,3.4,29.82,SW,235,8.0,13.0,64,0.00,,,0.00,Wunderground v.1.15,2013-02-01 17:25:00,
2013-02-01 12:35:00,13.1,3.2,29.82,SSW,213,8.0,11.0,64,0.00,,,0.00,Wunderground v.1.15,2013-02-01 17:35:00,
2013-02-01 12:40:00,13.4,3.5,29.83,SSW,200,6.0,6.0,64,0.00,,,0.00,Wunderground v.1.15,2013-02-01 17:40:00,
2013-02-01 12:50:00,13.6,4.3,29.83,WSW,239,6.0,8.0,66,0.00,,,0.00,Wunderground v.1.15,2013-02-01 17:50:00,
2013-02-01 12:55:00,13.7,4.4,29.83,West,264,5.0,8.0,66,0.00,,,0.00,Wunderground v.1.15,2013-02-01 17:55:00,
2013-02-01 13:00:00,14.0,4.7,29.83,WSW,242,6.0,6.0,66,0.00,,,0.00,Wunderground v.1.15,2013-02-01 18:00:00,
2013-02-01 13:05:00,14.1,4.8,29.83,WSW,238,5.0,6.0,66,0.00,,,0.00,Wunderground v.1.15,2013-02-01 18:05:00,
2013-02-01 13:10:00,14.3,5.3,29.83,SSW,194,5.0,5.0,67,0.00,,,0.00,Wunderground v.1.15,2013-02-01 18:10:00,
2013-02-01 13:15:00,14.2,3.9,29.83,SW,228,5.0,5.0,63,0.00,,,0.00,Wunderground v.1.15,2013-02-01 18:15:00,
2013-02-01 13:20:00,14.3,4.0,29.83,SW,236,5.0,5.0,63,0.00,,,0.00,Wunderground v.1.15,2013-02-01 18:20:00,
2013-02-01 13:30:00,14.3,4.3,29.84,SSE,167,5.0,5.0,64,0.00,,,0.00,Wunderground v.1.15,2013-02-01 18:30:00,
2013-02-01 13:35:00,14.3,4.0,29.84,West,274,5.0,7.0,63,0.00,,,0.00,Wunderground v.1.15,2013-02-01 18:35:00,
2013-02-01 13:45:00,14.5,4.2,29.84,SW,227,5.0,6.0,63,0.00,,,0.00,Wunderground v.1.15,2013-02-01 18:45:00,
2013-02-01 13:55:00,14.5,4.2,29.85,SW,216,5.0,6.0,63,0.00,,,0.00,Wunderground v.1.15,2013-02-01 18:55:00,
2013-02-01 14:00:00,14.5,4.2,29.85,WSW,254,5.0,5.0,63,0.00,,,0.00,Wunderground v.1.15,2013-02-01 19:00:00,
2013-02-01 14:06:00,14.8,4.5,29.85,South,180,5.0,5.0,63,0.00,,,0.00,Wunderground v.1.15,2013-02-01 19:06:00,
2013-02-01 14:20:00,14.9,4.9,29.85,WSW,242,5.0,5.0,64,0.00,,,0.00,Wunderground v.1.15,2013-02-01 19:20:00,
2013-02-01 14:25:00,14.6,4.3,29.85,WNW,290,5.0,7.0,63,0.00,,,0.00,Wunderground v.1.15,2013-02-01 19:25:00,
2013-02-01 14:30:00,14.7,4.4,29.85,NW,308,5.0,5.0,63,0.00,,,0.00,Wunderground v.1.15,2013-02-01 19:30:00,
2013-02-01 14:35:00,15.0,4.7,29.86,West,262,4.0,5.0,63,0.00,,,0.00,Wunderground v.1.15,2013-02-01 19:35:00,
2013-02-01 14:40:00,15.0,4.3,29.86,WSW,237,4.0,9.0,62,0.00,,,0.00,Wunderground v.1.15,2013-02-01 19:40:00,
2013-02-01 14:45:00,14.6,3.9,29.86,WSW,250,6.0,9.0,62,0.00,,,0.00,Wunderground v.1.15,2013-02-01 19:45:00,
2013-02-01 14:55:00,14.4,3.7,29.87,WNW,290,6.0,13.0,62,0.00,,,0.00,Wunderground v.1.15,2013-02-01 19:55:00,
2013-02-01 15:00:00,13.7,3.4,29.87,SW,223,7.0,7.0,63,0.00,,,0.00,Wunderground v.1.15,2013-02-01 20:00:00,
2013-02-01 15:05:00,13.4,3.5,29.87,SW,214,7.0,7.0,64,0.00,,,0.00,Wunderground v.1.15,2013-02-01 20:05:00,
2013-02-01 15:10:00,13.4,3.5,29.87,West,266,6.0,6.0,64,0.00,,,0.00,Wunderground v.1.15,2013-02-01 20:10:00,
2013-02-01 15:16:00,13.3,3.4,29.87,WNW,288,6.0,7.0,64,0.00,,,0.00,Wunderground v.1.15,2013-02-01 20:16:00,
2013-02-01 15:25:00,13.5,3.9,29.88,WSW,244,6.0,6.0,65,0.00,,,0.00,Wunderground v.1.15,2013-02-01 20:25:00,
2013-02-01 15:30:00,13.9,4.3,29.88,NW,317,4.0,4.0,65,0.00,,,0.00,Wunderground v.1.15,2013-02-01 20:30:00,
2013-02-01 15:35:00,14.2,4.9,29.88,NNW,335,3.0,4.0,66,0.00,,,0.00,Wunderground v.1.15,2013-02-01 20:35:00,
2013-02-01 15:40:00,14.4,4.8,29.88,WNW,300,3.0,4.0,65,0.00,,,0.00,Wunderground v.1.15,2013-02-01 20:40:00,
2013-02-01 15:45:00,14.4,4.8,29.88,WSW,257,3.0,4.0,65,0.00,,,0.00,Wunderground v.1.15,2013-02-01 20:45:00,
2013-02-01 15:51:00,14.7,5.7,29.89,West,269,2.0,2.0,67,0.00,,,0.00,Wunderground v.1.15,2013-02-01 20:51:00,
2013-02-01 15:55:00,14.6,5.3,29.89,West,279,2.0,4.0,66,0.00,,,0.00,Wunderground v.1.15,2013-02-01 20:55:00,
2013-02-01 16:00:00,14.0,4.7,29.89,SSW,198,4.0,5.0,66,0.00,,,0.00,Wunderground v.1.15,2013-02-01 21:00:00,
2013-02-01 16:06:00,13.4,4.1,29.89,WSW,246,3.0,5.0,66,0.00,,,0.00,Wunderground v.1.15,2013-02-01 21:06:00,
2013-02-01 16:10:00,13.1,4.2,29.90,SW,233,3.0,3.0,67,0.00,,,0.00,Wunderground v.1.15,2013-02-01 21:10:00,
2013-02-01 16:16:00,12.8,4.2,29.90,West,261,2.0,3.0,68,0.00,,,0.00,Wunderground v.1.15,2013-02-01 21:16:00,
2013-02-01 16:20:00,12.6,4.3,29.90,WNW,302,2.0,2.0,69,0.00,,,0.00,Wunderground v.1.15,2013-02-01 21:20:00,
2013-02-01 16:26:00,12.3,4.1,29.91,WNW,288,2.0,2.0,69,0.00,,,0.00,Wunderground v.1.15,2013-02-01 21:26:00,
2013-02-01 16:30:00,12.1,4.2,29.91,NNW,347,2.0,2.0,70,0.00,,,0.00,Wunderground v.1.15,2013-02-01 21:30:00,
2013-02-01 16:35:00,11.8,3.9,29.91,SSW,212,2.0,4.0,70,0.00,,,0.00,Wunderground v.1.15,2013-02-01 21:35:00,
2013-02-01 16:40:00,11.6,4.0,29.91,NNW,330,2.0,2.0,71,0.00,,,0.00,Wunderground v.1.15,2013-02-01 21:40:00,
2013-02-01 16:45:00,11.4,3.8,29.92,NW,325,2.0,2.0,71,0.00,,,0.00,Wunderground v.1.15,2013-02-01 21:45:00,
2013-02-01 16:50:00,11.2,3.9,29.92,WNW,291,2.0,2.0,72,0.00,,,0.00,Wunderground v.1.15,2013-02-01 21:50:00,
2013-02-01 16:55:00,11.0,3.7,29.92,West,265,2.0,3.0,72,0.00,,,0.00,Wunderground v.1.15,2013-02-01 21:55:00,
2013-02-01 17:05:00,10.7,3.4,29.93,East,93,2.0,2.0,72,0.00,,,0.00,Wunderground v.1.15,2013-02-01 22:05:00,
2013-02-01 17:10:00,10.5,3.3,29.93,West,259,2.0,2.0,72,0.00,,,0.00,Wunderground v.1.15,2013-02-01 22:10:00,
2013-02-01 17:15:00,10.4,2.9,29.93,WNW,293,3.0,4.0,71,0.00,,,0.00,Wunderground v.1.15,2013-02-01 22:15:00,
2013-02-01 17:20:00,10.3,2.8,29.93,West,271,3.0,5.0,71,0.00,,,0.00,Wunderground v.1.15,2013-02-01 22:20:00,
2013-02-01 17:25:00,10.3,2.8,29.94,WSW,255,3.0,5.0,71,0.00,,,0.00,Wunderground v.1.15,2013-02-01 22:25:00,
2013-02-01 17:30:00,10.2,2.7,29.94,SW,235,3.0,3.0,71,0.00,,,0.00,Wunderground v.1.15,2013-02-01 22:30:00,
2013-02-01 17:35:00,10.2,2.4,29.94,WSW,248,2.0,3.0,70,0.00,,,0.00,Wunderground v.1.15,2013-02-01 22:35:00,
2013-02-01 17:45:00,10.1,2.3,29.95,SW,215,2.0,3.0,70,0.00,,,0.00,Wunderground v.1.15,2013-02-01 22:45:00,
2013-02-01 17:50:00,10.0,2.2,29.95,West,265,2.0,3.0,70,0.00,,,0.00,Wunderground v.1.15,2013-02-01 22:50:00,
2013-02-01 17:55:00,10.0,2.2,29.96,WSW,255,2.0,3.0,70,0.00,,,0.00,Wunderground v.1.15,2013-02-01 22:55:00,
2013-02-01 18:00:00,10.0,2.2,29.96,SSW,199,2.0,2.0,70,0.00,,,0.00,Wunderground v.1.15,2013-02-01 23:00:00,
2013-02-01 18:05:00,9.9,2.1,29.96,ESE,105,2.0,3.0,70,0.00,,,0.00,Wunderground v.1.15,2013-02-01 23:05:00,
2013-02-01 18:10:00,9.9,2.1,29.97,NW,313,3.0,4.0,70,0.00,,,0.00,Wunderground v.1.15,2013-02-01 23:10:00,
2013-02-01 18:15:00,9.9,2.1,29.97,WSW,245,3.0,5.0,70,0.00,,,0.00,Wunderground v.1.15,2013-02-01 23:15:00,
2013-02-01 18:20:00,9.8,1.7,29.97,NW,306,3.0,6.0,69,0.00,,,0.00,Wunderground v.1.15,2013-02-01 23:20:00,
2013-02-01 18:25:00,9.8,1.7,29.98,NW,325,3.0,6.0,69,0.00,,,0.00,Wunderground v.1.15,2013-02-01 23:25:00,
2013-02-01 18:30:00,9.8,1.7,29.98,WSW,246,3.0,3.0,69,0.00,,,0.00,Wunderground v.1.15,2013-02-01 23:30:00,
2013-02-01 18:35:00,9.7,1.2,29.98,WNW,284,3.0,5.0,68,0.00,,,0.00,Wunderground v.1.15,2013-02-01 23:35:00,
2013-02-01 18:40:00,9.6,1.2,29.99,SW,229,3.0,4.0,68,0.00,,,0.00,Wunderground v.1.15,2013-02-01 23:40:00,
2013-02-01 18:45:00,9.6,1.2,29.99,West,263,4.0,4.0,68,0.00,,,0.00,Wunderground v.1.15,2013-02-01 23:45:00,
2013-02-01 18:55:00,9.5,1.1,30.00,West,274,3.0,3.0,68,0.00,,,0.00,Wunderground v.1.15,2013-02-01 23:55:00,
2013-02-01 19:00:00,9.4,1.0,30.00,West,277,2.0,3.0,68,0.00,,,0.00,Wunderground v.1.15,2013-02-02 00:00:00,
2013-02-01 19:05:00,9.4,1.0,30.00,WNW,301,2.0,3.0,68,0.00,,,0.00,Wunderground v.1.15,2013-02-02 00:05:00,
2013-02-01 19:10:00,9.3,0.9,30.00,West,261,3.0,4.0,68,0.00,,,0.00,Wunderground v.1.15,2013-02-02 00:10:00,
2013-02-01 19:15:00,9.3,0.9,30.01,NW,320,3.0,4.0,68,0.00,,,0.00,Wunderground v.1.15,2013-02-02 00:15:00,
2013-02-01 19:20:00,9.3,0.2,30.02,West,267,3.0,9.0,66,0.00,,,0.00,Wunderground v.1.15,2013-02-02 00:20:00,
2013-02-01 19:25:00,9.1,0.4,30.02,WSW,255,4.0,9.0,67,0.00,,,0.00,Wunderground v.1.15,2013-02-02 00:25:00,
2013-02-01 19:30:00,9.0,0.3,30.02,WNW,296,5.0,5.0,67,0.00,,,0.00,Wunderground v.1.15,2013-02-02 00:30:00,
2013-02-01 19:35:00,9.0,-0.1,30.03,SW,227,5.0,14.0,66,0.00,,,0.00,Wunderground v.1.15,2013-02-02 00:35:00,
2013-02-01 19:40:00,8.9,-0.2,30.03,NE,39,6.0,6.0,66,0.00,,,0.00,Wunderground v.1.15,2013-02-02 00:40:00,
2013-02-01 19:45:00,8.8,-0.3,30.03,West,259,5.0,6.0,66,0.00,,,0.00,Wunderground v.1.15,2013-02-02 00:45:00,
2013-02-01 19:50:00,8.7,-0.3,30.03,SW,229,3.0,4.0,66,0.00,,,0.00,Wunderground v.1.15,2013-02-02 00:50:00,
2013-02-01 19:55:00,8.6,-0.4,30.03,SSW,199,3.0,4.0,66,0.00,,,0.00,Wunderground v.1.15,2013-02-02 00:55:00,
2013-02-01 20:00:00,8.5,-0.2,30.04,NW,311,2.0,2.0,67,0.00,,,0.00,Wunderground v.1.15,2013-02-02 01:00:00,
2013-02-01 20:10:00,8.5,-0.2,30.04,WSW,252,2.0,2.0,67,0.00,,,0.00,Wunderground v.1.15,2013-02-02 01:10:00,
2013-02-01 20:15:00,8.5,-0.2,30.05,WSW,252,1.0,2.0,67,0.00,,,0.00,Wunderground v.1.15,2013-02-02 01:15:00,
2013-02-01 20:20:00,8.7,0.3,30.05,West,270,1.0,2.0,68,0.00,,,0.00,Wunderground v.1.15,2013-02-02 01:20:00,
2013-02-01 20:30:00,8.8,0.4,30.05,SW,236,2.0,3.0,68,0.00,,,0.00,Wunderground v.1.15,2013-02-02 01:30:00,
2013-02-01 20:35:00,8.8,0.4,30.05,WSW,244,2.0,3.0,68,0.00,,,0.00,Wunderground v.1.15,2013-02-02 01:35:00,
2013-02-01 20:40:00,8.8,0.4,30.06,SSW,209,2.0,2.0,68,0.00,,,0.00,Wunderground v.1.15,2013-02-02 01:40:00,
2013-02-01 20:50:00,8.8,0.7,30.06,WNW,303,3.0,3.0,69,0.00,,,0.00,Wunderground v.1.15,2013-02-02 01:50:00,
2013-02-01 20:55:00,8.9,0.8,30.06,West,279,2.0,3.0,69,0.00,,,0.00,Wunderground v.1.15,2013-02-02 01:55:00,
2013-02-01 22:10:00,9.5,2.3,30.08,West,265,1.0,3.0,72,0.00,,,0.00,Wunderground v.1.15,2013-02-02 03:10:00,
2013-02-01 22:15:00,9.5,2.3,30.08,West,265,1.0,3.0,72,0.00,,,0.00,Wunderground v.1.15,2013-02-02 03:15:00,
2013-02-01 22:20:00,9.5,2.3,30.09,West,265,1.0,2.0,72,0.00,,,0.00,Wunderground v.1.15,2013-02-02 03:20:00,
2013-02-01 22:25:00,9.5,2.6,30.09,West,265,0.0,2.0,73,0.00,,,0.00,Wunderground v.1.15,2013-02-02 03:25:00,
2013-02-01 22:30:00,9.4,2.5,30.09,West,265,1.0,1.0,73,0.00,,,0.00,Wunderground v.1.15,2013-02-02 03:30:00,
2013-02-01 22:35:00,9.3,2.4,30.09,West,265,1.0,1.0,73,0.00,,,0.00,Wunderground v.1.15,2013-02-02 03:35:00,
2013-02-01 22:40:00,9.2,2.3,30.09,SE,128,2.0,2.0,73,0.00,,,0.00,Wunderground v.1.15,2013-02-02 03:40:00,
2013-02-01 22:45:00,9.0,2.4,30.09,SW,230,2.0,4.0,74,0.00,,,0.00,Wunderground v.1.15,2013-02-02 03:45:00,
2013-02-01 22:50:00,8.9,2.3,30.10,West,274,2.0,2.0,74,0.00,,,0.00,Wunderground v.1.15,2013-02-02 03:50:00,
2013-02-01 22:55:00,8.9,2.3,30.10,SW,229,2.0,2.0,74,0.00,,,0.00,Wunderground v.1.15,2013-02-02 03:55:00,
2013-02-01 23:00:00,8.7,2.1,30.10,WNW,299,2.0,2.0,74,0.00,,,0.00,Wunderground v.1.15,2013-02-02 04:00:00,
2013-02-01 23:05:00,8.7,2.1,30.10,WNW,299,1.0,2.0,74,0.00,,,0.00,Wunderground v.1.15,2013-02-02 04:05:00,
2013-02-01 23:10:00,8.7,2.1,30.10,WNW,299,1.0,2.0,74,0.00,,,0.00,Wunderground v.1.15,2013-02-02 04:10:00,
2013-02-01 23:15:00,8.7,2.1,30.10,NNE,26,1.0,3.0,74,0.00,,,0.00,Wunderground v.1.15,2013-02-02 04:15:00,
2013-02-01 23:20:00,8.7,2.1,30.11,NW,308,2.0,3.0,74,0.00,,,0.00,Wunderground v.1.15,2013-02-02 04:20:00,
2013-02-01 23:25:00,8.6,1.7,30.11,West,260,2.0,4.0,73,0.00,,,0.00,Wunderground v.1.15,2013-02-02 04:25:00,
2013-02-01 23:30:00,8.4,1.8,30.11,West,272,2.0,2.0,74,0.00,,,0.00,Wunderground v.1.15,2013-02-02 04:30:00,
2013-02-01 23:35:00,8.2,1.6,30.11,West,272,1.0,2.0,74,0.00,,,0.00,Wunderground v.1.15,2013-02-02 04:35:00,
2013-02-01 23:40:00,8.1,1.8,30.11,West,272,0.0,1.0,75,0.00,,,0.00,Wunderground v.1.15,2013-02-02 04:40:00,
2013-02-01 23:50:00,8.0,1.7,30.12,West,272,0.0,2.0,75,0.00,,,0.00,Wunderground v.1.15,2013-02-02 04:50:00,
2013-02-01 23:55:00,7.9,1.6,30.11,West,272,1.0,2.0,75,0.00,,,0.00,Wunderground v.1.15,2013-02-02 04:55:00,